City Of Cleveland — WDC2358 — position and weather

sailwx.info

Track history (hours):
 
Tides and Currents Weather Stations Pressure Air Temp Water Temp Dewpoint Dewpoint Depression Visibility Wind Speed Wind Dir Waves Ship Positions

City Of Cleveland

Owner: JANTRAN, INC., ROSEDALE, MS. More information available from US FCC via Universal Licensing System and Coast Guard Vessel Documentation Center.

Last reported at 2015-May-25 11:21 UTC. Time now 2015-May-26 11:44 UTC.
Position N 30°42' W 091°21'.

Length 42 m; draft 12.5 m.

Type: Towing. MMSI: 366991810.

Date/timePositionNaut miles runAvg speedWind from/ knotsBaromVisibWave heightAir tempDewpointWater temp
2015-May-25 11:21N 30°42' W 091°21'4 5.4
2015-May-25 10:33N 30°39' W 091°18'5 4.6
2015-May-25 09:33N 30°34' W 091°18'3 2.8
2015-May-25 08:33N 30°34' W 091°15'4 3.9
2015-May-25 07:33N 30°30' W 091°17'4 4.3
2015-May-25 06:33N 30°30' W 091°12'1 1.3
2015-May-25 05:33N 30°29' W 091°12'5 4.8
2015-May-25 04:33N 30°24' W 091°12'1 0.8
2015-May-25 03:33N 30°24' W 091°13'0 0.0
2015-May-25 02:33N 30°24' W 091°13'3 3.3
2015-May-25 01:33N 30°21' W 091°14'5 5.0
2015-May-25 00:33N 30°20' W 091°09'4 4.2
2015-May-24 23:32N 30°19' W 091°13'5 4.9
2015-May-24 22:33N 30°16' W 091°08'55 2.5
2015-May-24 00:33N 29°57' W 090°09'4 3.5
2015-May-23 23:20N 29°57' W 090°04'4 1.8
2015-May-23 21:13N 29°56' W 089°59'0 0.0
2015-May-23 20:33N 29°56' W 089°59'0 0.0
2015-May-23 19:20N 29°56' W 089°59'0 0.0
2015-May-23 18:22N 29°56' W 089°59'2 1.6
2015-May-23 17:15N 29°55' W 089°57'5 6.7
2015-May-23 16:33N 29°57' W 090°02'6 5.6
2015-May-23 15:33N 29°55' W 090°08'2 2.1
2015-May-23 14:31N 29°57' W 090°10'0 0.0
2015-May-23 13:33N 29°57' W 090°10'0 0.0
2015-May-23 12:30N 29°57' W 090°10'2 1.5
2015-May-23 11:27N 29°56' W 090°11'55 1.4
2015-May-21 19:18N 30°20' W 091°09'5 6.5
2015-May-21 18:32N 30°21' W 091°14'4 3.7
2015-May-21 17:33N 30°24' W 091°12'0 0.0
2015-May-21 16:33N 30°24' W 091°12'0 0.0
2015-May-21 15:33N 30°24' W 091°12'5 4.8
2015-May-21 14:33N 30°29' W 091°12'3 3.4
2015-May-21 13:33N 30°30' W 091°16'4 3.9
2015-May-21 12:33N 30°34' W 091°16'5 5.0
2015-May-21 11:33N 30°39' W 091°18'7 7.3
2015-May-21 10:33N 30°45' W 091°23'  
Track history (hours):
 
Tides and Currents Weather Stations Pressure Air Temp Water Temp Dewpoint Dewpoint Depression Visibility Wind Speed Wind Dir Waves Ship Positions

City Of Cleveland

Owner: JANTRAN, INC., ROSEDALE, MS. More information available from US FCC via Universal Licensing System and Coast Guard Vessel Documentation Center.

Last reported at 2015-May-25 11:21 UTC. Time now 2015-May-26 11:44 UTC.
Position N 30°42' W 091°21'.

Length 42 m; draft 12.5 m.

Type: Towing. MMSI: 366991810.

Date/timePositionNaut miles runAvg speedWind from/ knotsBaromVisibWave heightAir tempDewpointWater temp
2015-May-25 11:21N 30°42' W 091°21'4 5.4
2015-May-25 10:33N 30°39' W 091°18'5 4.6
2015-May-25 09:33N 30°34' W 091°18'3 2.8
2015-May-25 08:33N 30°34' W 091°15'4 3.9
2015-May-25 07:33N 30°30' W 091°17'4 4.3
2015-May-25 06:33N 30°30' W 091°12'1 1.3
2015-May-25 05:33N 30°29' W 091°12'5 4.8
2015-May-25 04:33N 30°24' W 091°12'1 0.8
2015-May-25 03:33N 30°24' W 091°13'0 0.0
2015-May-25 02:33N 30°24' W 091°13'3 3.3
2015-May-25 01:33N 30°21' W 091°14'5 5.0
2015-May-25 00:33N 30°20' W 091°09'4 4.2
2015-May-24 23:32N 30°19' W 091°13'5 4.9
2015-May-24 22:33N 30°16' W 091°08'55 2.5
2015-May-24 00:33N 29°57' W 090°09'4 3.5
2015-May-23 23:20N 29°57' W 090°04'4 1.8
2015-May-23 21:13N 29°56' W 089°59'0 0.0
2015-May-23 20:33N 29°56' W 089°59'0 0.0
2015-May-23 19:20N 29°56' W 089°59'0 0.0
2015-May-23 18:22N 29°56' W 089°59'2 1.6
2015-May-23 17:15N 29°55' W 089°57'5 6.7
2015-May-23 16:33N 29°57' W 090°02'6 5.6
2015-May-23 15:33N 29°55' W 090°08'2 2.1
2015-May-23 14:31N 29°57' W 090°10'0 0.0
2015-May-23 13:33N 29°57' W 090°10'0 0.0
2015-May-23 12:30N 29°57' W 090°10'2 1.5
2015-May-23 11:27N 29°56' W 090°11'55 1.4
2015-May-21 19:18N 30°20' W 091°09'5 6.5
2015-May-21 18:32N 30°21' W 091°14'4 3.7
2015-May-21 17:33N 30°24' W 091°12'0 0.0
2015-May-21 16:33N 30°24' W 091°12'0 0.0
2015-May-21 15:33N 30°24' W 091°12'5 4.8
2015-May-21 14:33N 30°29' W 091°12'3 3.4
2015-May-21 13:33N 30°30' W 091°16'4 3.9
2015-May-21 12:33N 30°34' W 091°16'5 5.0
2015-May-21 11:33N 30°39' W 091°18'7 7.3
2015-May-21 10:33N 30°45' W 091°23'  

Dump ship's entire track history